Terminal Aerodrome Forecast
Issued by NWS

Home | Current Version | Previous Version | Text Only | Print | Product List | Glossary On
Versions: 1 2 3 4 5 6 7 8 9 10 11 12 13 14 15 16 17 18 19 20 21 22
000
FTUS44 KMAF 181400 AAB
TAFHOB
TAF AMD
KHOB 181404Z 1814/1912 12005KT 2SM BR OVC003
     FM181800 14010G20KT P6SM SCT030
     FM190300 15009KT P6SM SCT100 OVC250=

USA.gov is the U.S. government's official web portal to all federal, state and local government web resources and services.